createdAt,value
2024-01-10T00:00:45.727Z,-10.4
2024-01-10T00:05:51.882Z,-10.4
2024-01-10T00:10:58.088Z,-10.4
2024-01-10T00:16:04.436Z,-10.5
2024-01-10T00:21:10.677Z,-10.4
2024-01-10T00:26:16.795Z,-10.4
2024-01-10T00:31:23.012Z,-10.4
2024-01-10T00:36:29.233Z,-10.4
2024-01-10T00:41:35.449Z,-10.4
2024-01-10T00:46:41.705Z,-10.4
2024-01-10T00:51:48.083Z,-10.4
2024-01-10T00:56:54.182Z,-10.5
2024-01-10T01:02:00.435Z,-10.5
2024-01-10T01:07:06.604Z,-10.5
2024-01-10T01:12:12.843Z,-10.4
2024-01-10T01:17:19.058Z,-10.4
2024-01-10T01:22:25.292Z,-10.5
2024-01-10T01:27:31.536Z,-10.6
2024-01-10T01:32:37.744Z,-10.7
2024-01-10T01:37:43.944Z,-10.7
2024-01-10T01:42:50.216Z,-10.6
2024-01-10T01:47:56.380Z,-10.7
2024-01-10T01:53:02.652Z,-10.7
2024-01-10T01:58:08.849Z,-10.7
2024-01-10T02:03:15.070Z,-10.7
2024-01-10T02:08:21.418Z,-10.7
2024-01-10T02:13:27.698Z,-10.8
2024-01-10T02:18:33.913Z,-10.8
2024-01-10T02:23:40.196Z,-11
2024-01-10T02:28:46.516Z,-10.8
2024-01-10T02:33:52.770Z,-10.9
2024-01-10T02:38:59.044Z,-10.9
2024-01-10T02:44:05.352Z,-10.8
2024-01-10T02:49:11.624Z,-10.8
2024-01-10T02:54:17.917Z,-10.8
2024-01-10T02:59:24.253Z,-10.9
2024-01-10T03:04:30.501Z,-11.1
2024-01-10T03:09:36.782Z,-11.1
2024-01-10T03:14:43.158Z,-11
2024-01-10T03:19:49.665Z,-10.9
2024-01-10T03:24:56.016Z,-10.7
2024-01-10T03:30:02.427Z,-10.8
2024-01-10T03:35:08.864Z,-11
2024-01-10T03:40:15.296Z,-11.1
2024-01-10T03:45:21.739Z,-11
2024-01-10T03:50:28.149Z,-11
2024-01-10T03:55:34.598Z,-11
2024-01-10T04:00:41.037Z,-10.9
2024-01-10T04:05:47.433Z,-10.9
2024-01-10T04:10:53.864Z,-11
2024-01-10T04:16:00.302Z,-11
2024-01-10T04:21:07.115Z,-11
2024-01-10T04:26:12.528Z,-11.1
2024-01-10T04:31:18.839Z,-11
2024-01-10T04:36:25.318Z,-10.9
2024-01-10T04:41:31.658Z,-10.9
2024-01-10T04:46:37.719Z,-11
2024-01-10T04:51:43.938Z,-11.1
2024-01-10T04:56:50.217Z,-11
2024-01-10T05:01:56.660Z,-11.1
2024-01-10T05:07:02.837Z,-11
2024-01-10T05:12:09.200Z,-11.1
2024-01-10T05:17:15.427Z,-11.1
2024-01-10T05:22:21.748Z,-11.1
2024-01-10T05:27:27.923Z,-11.1
2024-01-10T05:32:34.433Z,-11.2
2024-01-10T05:37:40.505Z,-11.2
2024-01-10T05:42:46.824Z,-11.2
2024-01-10T05:47:53.066Z,-11.1
2024-01-10T05:52:59.362Z,-11.3
2024-01-10T05:58:05.699Z,-11.4
2024-01-10T06:03:11.989Z,-11.4
2024-01-10T06:08:18.270Z,-11.4
2024-01-10T06:13:24.542Z,-11.3
2024-01-10T06:18:30.759Z,-11.3
2024-01-10T06:23:37.067Z,-11.3
2024-01-10T06:28:43.344Z,-11.5
2024-01-10T06:33:49.772Z,-11.5
2024-01-10T06:38:56.296Z,-11.6
2024-01-10T06:44:02.575Z,-11.6
2024-01-10T06:49:09.016Z,-11.5
2024-01-10T06:54:15.414Z,-11.5
2024-01-10T06:59:21.858Z,-11.6
2024-01-10T07:04:28.296Z,-11.6
2024-01-10T07:09:34.705Z,-11.5
2024-01-10T07:14:41.281Z,-11.5
2024-01-10T07:19:47.591Z,-11.5
2024-01-10T07:24:54.147Z,-11.5
2024-01-10T07:30:00.471Z,-11.6
2024-01-10T07:35:06.847Z,-11.4
2024-01-10T07:40:13.530Z,-11.3
2024-01-10T07:45:20.268Z,-11.2
2024-01-10T07:50:25.710Z,-11.1
2024-01-10T07:55:31.963Z,-10.5
2024-01-10T08:00:38.174Z,-8.5
2024-01-10T08:05:44.425Z,-7.4
2024-01-10T08:10:50.603Z,-7.1
2024-01-10T08:15:56.875Z,-6.7
2024-01-10T08:21:03.130Z,-6.8
2024-01-10T08:26:09.331Z,-6.9
2024-01-10T08:31:15.771Z,-6.9
2024-01-10T08:36:21.689Z,-6
2024-01-10T08:41:28.143Z,-6
2024-01-10T08:46:34.164Z,-6
2024-01-10T08:51:40.708Z,-5.7
2024-01-10T08:56:46.718Z,-6.2
2024-01-10T09:01:53.142Z,-5.5
2024-01-10T09:06:59.230Z,-5.3
2024-01-10T09:12:05.451Z,-4.9
2024-01-10T09:17:11.545Z,-4.8
2024-01-10T09:22:17.778Z,-5
2024-01-10T09:27:24.023Z,-4.8
2024-01-10T09:32:30.188Z,-4.6
2024-01-10T09:37:36.409Z,-4.5
2024-01-10T09:42:42.834Z,-4
2024-01-10T09:47:49.063Z,-4.3
2024-01-10T09:52:55.172Z,-4.5
2024-01-10T09:58:01.478Z,-4.3
2024-01-10T10:03:07.744Z,-4.9
2024-01-10T10:08:13.909Z,-5.8
2024-01-10T10:13:20.253Z,-5.6
2024-01-10T10:18:26.508Z,-5.8
2024-01-10T10:23:32.761Z,-5.8
2024-01-10T10:28:39.030Z,-6.2
2024-01-10T10:33:45.294Z,-6.3
2024-01-10T10:38:51.655Z,-6.3
2024-01-10T10:43:57.957Z,-6.1
2024-01-10T10:49:04.154Z,-6
2024-01-10T10:54:10.416Z,-5.7
2024-01-10T10:59:16.917Z,-5.6
2024-01-10T11:04:23.287Z,-5.6
2024-01-10T11:09:29.669Z,-5.5
2024-01-10T11:14:36.124Z,-5.7
2024-01-10T11:19:42.424Z,-5.3
2024-01-10T11:24:48.837Z,-5.3
2024-01-10T11:29:55.432Z,-5.1
2024-01-10T11:35:01.621Z,-4.9
2024-01-10T11:40:08.076Z,-4.9
2024-01-10T11:45:14.507Z,-4.4
2024-01-10T11:50:20.900Z,-4.5
2024-01-10T11:55:27.318Z,-4.3
2024-01-10T12:00:33.747Z,-4.3
2024-01-10T12:05:40.164Z,-4.1
2024-01-10T12:10:46.875Z,-4.1
2024-01-10T12:15:52.395Z,-4.2
2024-01-10T12:20:58.669Z,-4
2024-01-10T12:26:05.178Z,-4
2024-01-10T12:31:11.206Z,-3.9
2024-01-10T12:36:17.492Z,-3.8
2024-01-10T12:41:23.746Z,-3.6
2024-01-10T12:46:30.108Z,-3.6
2024-01-10T12:51:36.301Z,-3.4
2024-01-10T12:56:42.595Z,-3.3
2024-01-10T13:01:48.980Z,-3.3
2024-01-10T13:06:55.208Z,-3.4
2024-01-10T13:12:01.444Z,-3.4
2024-01-10T13:17:07.787Z,-3.3
2024-01-10T13:22:13.967Z,-3.2
2024-01-10T13:27:20.294Z,-3.1
2024-01-10T13:32:26.529Z,-3.2
2024-01-10T13:37:33.006Z,-3.1
2024-01-10T13:42:39.136Z,-3.1
2024-01-10T13:47:45.493Z,-3.1
2024-01-10T13:52:51.643Z,-3.1
2024-01-10T13:57:58.119Z,-3.1
2024-01-10T14:03:04.256Z,-3.1
2024-01-10T14:08:10.572Z,-3.2
2024-01-10T14:13:16.835Z,-3.2
2024-01-10T14:18:23.086Z,-3.2
2024-01-10T14:23:29.736Z,-3.2
2024-01-10T14:28:35.922Z,-3.4
2024-01-10T14:33:42.252Z,-3.5
2024-01-10T14:38:48.716Z,-3.6
2024-01-10T14:43:55.202Z,-3.7
2024-01-10T14:49:01.567Z,-3.8
2024-01-10T14:54:07.931Z,-3.9
2024-01-10T14:59:14.365Z,-4.1
2024-01-10T15:04:20.828Z,-4.1
2024-01-10T15:09:27.179Z,-4.4
2024-01-10T15:14:33.581Z,-4.7
2024-01-10T15:19:40.054Z,-5.1
2024-01-10T15:24:46.452Z,-5.2
2024-01-10T15:29:53.090Z,-5.4
2024-01-10T15:34:58.885Z,-5.7
2024-01-10T15:40:04.960Z,-5.8
2024-01-10T15:45:11.222Z,-6
2024-01-10T15:50:17.502Z,-6.3
2024-01-10T15:55:23.817Z,-6.6
2024-01-10T16:00:30.067Z,-6.7
2024-01-10T16:05:36.504Z,-6.6
2024-01-10T16:10:42.642Z,-6.7
2024-01-10T16:15:48.883Z,-6.7
2024-01-10T16:20:55.146Z,-6.9
2024-01-10T16:26:01.444Z,-7.2
2024-01-10T16:31:07.725Z,-7.5
2024-01-10T16:36:14.011Z,-7.8
2024-01-10T16:41:20.267Z,-7.9
2024-01-10T16:46:26.564Z,-8
2024-01-10T16:51:32.832Z,-8.2
2024-01-10T16:56:39.099Z,-8.3
2024-01-10T17:01:45.389Z,-7.7
2024-01-10T17:06:51.670Z,-7.9
2024-01-10T17:11:57.952Z,-8.2
2024-01-10T17:17:05.993Z,-8.3
2024-01-10T17:22:10.615Z,-8.5
2024-01-10T17:27:16.776Z,-8.7
2024-01-10T17:32:23.061Z,-8.8
2024-01-10T17:37:29.333Z,-8.9
2024-01-10T17:42:35.755Z,-9
2024-01-10T17:47:42.181Z,-8.2
2024-01-10T17:52:48.595Z,-8
2024-01-10T17:57:55.056Z,-8
2024-01-10T18:03:01.588Z,-8.2
2024-01-10T18:08:07.958Z,-8.4
2024-01-10T18:13:14.355Z,-8.5
2024-01-10T18:18:20.750Z,-8.7
2024-01-10T18:23:27.180Z,-8.8
2024-01-10T18:28:33.593Z,-9
2024-01-10T18:33:40.086Z,-9.1
2024-01-10T18:38:46.521Z,-9.1
2024-01-10T18:43:52.931Z,-9.3
2024-01-10T18:48:59.615Z,-9.4
2024-01-10T18:54:05.178Z,-9.4
2024-01-10T18:59:11.469Z,-9.5
2024-01-10T19:04:17.718Z,-9.6
2024-01-10T19:09:23.995Z,-9.6
2024-01-10T19:14:30.282Z,-9.7
2024-01-10T19:19:36.572Z,-9.7
2024-01-10T19:24:42.879Z,-9.8
2024-01-10T19:29:49.177Z,-9.8
2024-01-10T19:34:55.463Z,-9.8
2024-01-10T19:40:01.728Z,-9.8
2024-01-10T19:45:08.017Z,-9.9
2024-01-10T19:50:14.293Z,-9.8
2024-01-10T19:55:20.572Z,-9.8
2024-01-10T20:00:27.147Z,-9.9
2024-01-10T20:05:33.161Z,-10
2024-01-10T20:10:39.460Z,-10.1
2024-01-10T20:15:45.758Z,-10.2
2024-01-10T20:20:52.052Z,-10.3
2024-01-10T20:25:58.313Z,-10.4
2024-01-10T20:36:10.906Z,-10.4
2024-01-10T20:41:17.191Z,-9.7
2024-01-10T20:46:23.459Z,-9.6
2024-01-10T20:51:29.742Z,-9.9
2024-01-10T20:56:36.018Z,-10
2024-01-10T21:01:42.408Z,-10.1
2024-01-10T21:06:48.841Z,-10.3
2024-01-10T21:11:55.281Z,-10.4
2024-01-10T21:17:01.694Z,-10.6
2024-01-10T21:22:08.140Z,-10.6
2024-01-10T21:27:14.573Z,-10.6
2024-01-10T21:32:21.023Z,-10.6
2024-01-10T21:37:27.527Z,-10.7
2024-01-10T21:42:33.819Z,-10.7
2024-01-10T21:47:40.251Z,-10.7
2024-01-10T21:52:46.687Z,-10.6
2024-01-10T21:57:53.098Z,-10.6
2024-01-10T22:02:59.539Z,-10.7
2024-01-10T22:08:06.302Z,-10.7
2024-01-10T22:13:12.966Z,-10.7
2024-01-10T22:18:19.734Z,-10.2
2024-01-10T22:23:25.009Z,-10.3
2024-01-10T22:28:31.396Z,-10.4
2024-01-10T22:33:37.479Z,-10.6
2024-01-10T22:38:43.830Z,-10.7
2024-01-10T22:43:49.942Z,-10.7
2024-01-10T22:48:56.152Z,-10.7
2024-01-10T22:54:02.362Z,-10.7
2024-01-10T22:59:08.608Z,-10.8
2024-01-10T23:04:14.891Z,-10.8
2024-01-10T23:09:21.138Z,-10.6
2024-01-10T23:14:27.363Z,-10.3
2024-01-10T23:19:33.648Z,-10.1
2024-01-10T23:24:39.804Z,-10.4
2024-01-10T23:29:46.035Z,-10.6
2024-01-10T23:34:52.260Z,-10.5
2024-01-10T23:39:58.495Z,-10.2
2024-01-10T23:45:04.725Z,-10.3
2024-01-10T23:50:10.956Z,-10.4
2024-01-10T23:55:17.163Z,-10.4
